Impacts METAR Board
IDs:

KFLL - Ft Lauderdale-Hollyw, FL, US

Updated at: 1000 UTC 09 Jul 2020
Potential Impact None Slight Moderate High
Time 08/22Z 08/23Z 09/00Z 09/01Z 09/02Z 09/03Z 09/04Z 09/05Z 09/06Z 09/07Z 09/08Z 09/09Z 09/10Z
Temp87 88 87 86 86 85 78 80 81 81 80 80 80
Dewpt77 77 76 76 76 76 75 77 77 77 76 75 76
Altim29.92 29.90 29.91 29.93 29.94 29.97 29.97 29.95 29.94 29.93 29.93 29.93 29.93
VIS10 10 10 10 10 10 10 10 10 10 10 10 10
CIG250 -- -- -- 55 49 85 -- -- -- -- -- --
CoverBKNSCTSCTSCTBKNBKNBKNSCTSCTSCTFEWCLRFEW
FltCatVFRVFRVFRVFRVFRVFRVFRVFRVFRVFRVFRVFRVFR
WX-------------RA------------
WDir160180190200210270700250280300310310
WSpd7 4 6 5 4 7 3 0 3 4 5 3 5
WGst-- -- -- -- -- -- -- -- -- -- -- -- --
Raw hourly METARs
KFLL 082153Z 16007KT 10SM FEW030 FEW110 SCT170 BKN250 31/25 A2992 RMK AO2 SLP131 CB DSNT W NW T03060250
KFLL 082253Z 18004KT 10SM FEW030 FEW170 SCT250 31/25 A2990 RMK AO2 SLP126 CB DSNT W NW MOV E T03110250
KFLL 082353Z 19006KT 10SM FEW028 FEW100 SCT250 31/24 A2991 RMK AO2 SLP129 60009 T03060244 10339 20261 55009
KFLL 090053Z COR 20005KT 10SM FEW030 FEW100 FEW180 SCT250 30/24 A2993 RMK AO2 SLP136 TCU DSNT N T03000244
KFLL 090153Z 21004KT 10SM SCT045 BKN055 30/24 A2994 RMK AO2 LTG DSNT SW SLP137 T03000244
KFLL 090253Z 27007KT 10SM SCT028 BKN049 BKN075 29/24 A2997 RMK AO2 LTG DSNT S AND SW SLP147 T02940244 53018
KFLL 090353Z 07003KT 10SM -RA SCT039 SCT060 BKN085 26/24 A2997 RMK AO2 RAB19 TSB23E49 SLP148 P0009 T02560239
KFLL 090453Z 00000KT 10SM SCT040 SCT080 27/25 A2995 RMK AO2 RAE18 SLP142 P0001 T02670250 403390256
KFLL 090553Z 25003KT 10SM SCT041 SCT075 27/25 A2994 RMK AO2 SLP138 60010 T02720250 10306 20256 58008
KFLL 090653Z 28004KT 10SM SCT041 SCT075 27/25 A2993 RMK AO2 SLP136 T02720250
KFLL 090753Z 30005KT 10SM FEW050 FEW120 27/24 A2993 RMK AO2 SLP133 T02670244 $
KFLL 090853Z 31003KT 10SM CLR 27/24 A2993 RMK AO2 SLP134 T02670239 56005 $
KFLL 090953Z 31005KT 10SM FEW025 27/24 A2993 RMK AO2 SLP135 T02670244 $



Page loaded:  10:41 UTC  |   03:41 AM Pacific  |   04:41 AM Mountain  |   05:41 AM Central  |   06:41 AM Eastern

 

ADVISORIES

FORECASTS

FORECASTS

OBSERVATIONS

USER TOOLS

ABOUT US